createdAt,value
2018-12-13T00:00:13.257Z,0.66
2018-12-13T00:02:43.368Z,0.70
2018-12-13T00:05:15.032Z,0.67
2018-12-13T00:07:46.888Z,0.58
2018-12-13T00:10:17.009Z,0.73
2018-12-13T00:12:47.174Z,0.63
2018-12-13T00:15:22.168Z,0.66
2018-12-13T00:17:52.911Z,0.68
2018-12-13T00:20:22.989Z,0.86
2018-12-13T00:22:52.971Z,0.78
2018-12-13T00:25:24.283Z,0.83
2018-12-13T00:27:56.041Z,0.74
2018-12-13T00:30:26.136Z,0.77
2018-12-13T00:32:57.180Z,0.78
2018-12-13T00:35:27.223Z,0.74
2018-12-13T00:37:58.232Z,0.79
2018-12-13T00:40:29.126Z,0.82
2018-12-13T00:42:59.291Z,0.83
2018-12-13T00:45:30.241Z,0.81
2018-12-13T00:48:00.087Z,0.79
2018-12-13T00:50:30.880Z,0.79
2018-12-13T00:53:01.203Z,0.69
2018-12-13T00:55:32.143Z,0.56
2018-12-13T00:58:03.236Z,0.47
2018-12-13T01:00:33.233Z,0.47
2018-12-13T01:03:04.282Z,0.44
2018-12-13T01:05:34.300Z,0.46
2018-12-13T01:08:05.328Z,0.42
2018-12-13T01:10:36.642Z,0.38
2018-12-13T01:13:09.278Z,0.33
2018-12-13T01:15:40.316Z,0.22
2018-12-13T01:18:11.159Z,0.10
2018-12-13T01:20:41.724Z,0.16
2018-12-13T01:23:12.283Z,0.13
2018-12-13T01:25:43.517Z,0.09
2018-12-13T01:28:14.164Z,0.10
2018-12-13T01:30:43.755Z,0.08
2018-12-13T01:33:15.242Z,0.06
2018-12-13T01:35:47.418Z,0.05
2018-12-13T01:38:17.513Z,-0.03
2018-12-13T01:40:47.286Z,-0.06
2018-12-13T01:43:18.484Z,0.02
2018-12-13T01:45:48.455Z,0.00
2018-12-13T01:48:19.337Z,-0.10
2018-12-13T01:50:51.478Z,-0.26
2018-12-13T01:53:23.504Z,-0.30
2018-12-13T01:55:54.447Z,-0.38
2018-12-13T01:58:24.952Z,-0.38
2018-12-13T02:00:55.766Z,-0.44
2018-12-13T02:03:26.299Z,-0.42
2018-12-13T02:05:56.724Z,-0.30
2018-12-13T02:08:27.394Z,-0.29
2018-12-13T02:10:58.174Z,-0.22
2018-12-13T02:13:28.396Z,-0.31
2018-12-13T02:15:59.372Z,-0.07
2018-12-13T02:18:29.372Z,-0.09
2018-12-13T02:21:00.896Z,-0.02
2018-12-13T02:23:31.192Z,-0.04
2018-12-13T02:26:01.576Z,0.04
2018-12-13T02:28:32.554Z,0.03
2018-12-13T02:31:03.490Z,0.05
2018-12-13T02:33:33.727Z,0.06
2018-12-13T02:36:05.378Z,0.05
2018-12-13T02:38:35.506Z,0.20
2018-12-13T02:41:05.671Z,0.09
2018-12-13T02:43:36.783Z,0.15
2018-12-13T02:46:07.951Z,0.09
2018-12-13T02:48:38.436Z,0.17
2018-12-13T02:51:08.730Z,0.10
2018-12-13T02:53:39.860Z,-0.01
2018-12-13T02:56:09.798Z,0.03
2018-12-13T02:58:40.805Z,0.00
2018-12-13T03:01:10.936Z,0.06
2018-12-13T03:03:42.185Z,0.05
2018-12-13T03:06:14.670Z,0.08
2018-12-13T03:08:44.179Z,0.12
2018-12-13T03:11:15.739Z,0.24
2018-12-13T03:13:46.667Z,0.26
2018-12-13T03:16:18.759Z,0.25
2018-12-13T03:18:50.910Z,0.12
2018-12-13T03:21:21.736Z,0.22
2018-12-13T03:23:51.782Z,0.26
2018-12-13T03:26:22.834Z,0.33
2018-12-13T03:28:53.880Z,0.31
2018-12-13T03:31:23.953Z,0.41
2018-12-13T03:33:54.924Z,0.43
2018-12-13T03:36:26.817Z,0.41
2018-12-13T03:38:56.300Z,0.44
2018-12-13T03:44:06.957Z,0.35
2018-12-13T03:46:36.903Z,0.39
2018-12-13T03:49:07.790Z,0.35
2018-12-13T03:51:38.901Z,0.49
2018-12-13T03:54:10.209Z,0.42
2018-12-13T03:56:43.593Z,0.44
2018-12-13T03:59:17.827Z,0.58
2018-12-13T04:01:50.931Z,0.43
2018-12-13T04:04:21.913Z,0.48
2018-12-13T04:06:52.964Z,0.45
2018-12-13T04:09:23.003Z,0.38
2018-12-13T04:11:53.046Z,0.42
2018-12-13T04:14:24.062Z,0.34
2018-12-13T04:16:55.731Z,0.31
2018-12-13T04:19:26.077Z,0.27
2018-12-13T04:21:56.105Z,0.35
2018-12-13T04:24:27.007Z,0.16
2018-12-13T04:26:57.153Z,0.17
2018-12-13T04:29:28.171Z,0.22
2018-12-13T04:31:58.114Z,0.33
2018-12-13T04:34:29.652Z,0.28
2018-12-13T04:37:02.987Z,0.34
2018-12-13T04:39:33.159Z,0.37
2018-12-13T04:42:04.207Z,0.27
2018-12-13T04:44:35.326Z,0.17
2018-12-13T04:47:05.512Z,0.22
2018-12-13T04:49:36.044Z,0.20
2018-12-13T04:52:08.500Z,0.29
2018-12-13T04:54:38.079Z,0.31
2018-12-13T04:57:09.165Z,0.23
2018-12-13T04:59:40.345Z,0.25
2018-12-13T05:02:10.390Z,0.26
2018-12-13T05:04:41.444Z,0.31
2018-12-13T05:07:12.313Z,0.27
2018-12-13T05:09:42.252Z,0.25
2018-12-13T05:12:13.294Z,0.22
2018-12-13T05:14:43.220Z,0.25
2018-12-13T05:17:14.761Z,0.16
2018-12-13T05:19:44.328Z,0.14
2018-12-13T05:22:16.103Z,0.16
2018-12-13T05:24:48.608Z,0.10
2018-12-13T05:27:19.203Z,0.01
2018-12-13T05:29:50.436Z,-0.07
2018-12-13T05:32:21.416Z,-0.05
2018-12-13T05:34:52.705Z,0.04
2018-12-13T05:37:23.279Z,0.08
2018-12-13T05:39:53.407Z,0.11
2018-12-13T05:42:24.250Z,0.15
2018-12-13T05:44:55.968Z,0.07
2018-12-13T05:47:26.336Z,0.13
2018-12-13T05:49:56.622Z,0.13
2018-12-13T05:52:28.000Z,0.08
2018-12-13T05:54:58.815Z,0.13
2018-12-13T05:57:29.447Z,0.13
2018-12-13T06:00:00.378Z,-0.04
2018-12-13T06:02:31.227Z,-0.07
2018-12-13T06:05:01.597Z,-0.21
2018-12-13T06:07:32.580Z,-0.16
2018-12-13T06:10:03.168Z,-0.18
2018-12-13T06:12:33.663Z,-0.20
2018-12-13T06:15:03.588Z,-0.26
2018-12-13T06:17:34.844Z,-0.17
2018-12-13T06:20:05.711Z,-0.22
2018-12-13T06:22:35.633Z,-0.17
2018-12-13T06:25:08.163Z,-0.19
2018-12-13T06:27:40.327Z,-0.20
2018-12-13T06:30:10.557Z,-0.09
2018-12-13T06:32:41.604Z,-0.08
2018-12-13T06:35:12.723Z,-0.19
2018-12-13T06:37:43.691Z,-0.06
2018-12-13T06:40:15.689Z,-0.10
2018-12-13T06:42:47.708Z,-0.10
2018-12-13T06:45:17.719Z,-0.16
2018-12-13T06:47:50.498Z,-0.09
2018-12-13T06:50:22.771Z,0.01
2018-12-13T06:52:53.822Z,0.02
2018-12-13T06:55:23.801Z,0.02
2018-12-13T06:57:54.768Z,0.08
2018-12-13T07:00:25.888Z,0.07
2018-12-13T07:02:56.956Z,0.19
2018-12-13T07:05:27.867Z,0.21
2018-12-13T07:07:58.845Z,0.20
2018-12-13T07:10:29.649Z,0.15
2018-12-13T07:12:59.875Z,0.21
2018-12-13T07:15:30.036Z,0.20
2018-12-13T07:18:00.944Z,0.22
2018-12-13T07:20:31.987Z,0.16
2018-12-13T07:23:01.902Z,0.09
2018-12-13T07:25:32.987Z,0.14
2018-12-13T07:28:02.997Z,0.21
2018-12-13T07:30:33.840Z,0.24
2018-12-13T07:33:03.880Z,0.24
2018-12-13T07:35:35.158Z,0.22
2018-12-13T07:38:05.989Z,0.17
2018-12-13T07:40:35.859Z,0.19
2018-12-13T07:43:06.930Z,0.22
2018-12-13T07:45:38.559Z,0.36
2018-12-13T07:48:10.911Z,0.35
2018-12-13T07:50:41.888Z,0.28
2018-12-13T07:53:13.983Z,0.32
2018-12-13T07:55:44.025Z,0.38
2018-12-13T07:58:14.067Z,0.31
2018-12-13T08:00:44.072Z,0.40
2018-12-13T08:03:18.819Z,0.36
2018-12-13T08:05:50.045Z,0.45
2018-12-13T08:08:21.148Z,0.37
2018-12-13T08:10:51.162Z,0.38
2018-12-13T08:13:21.586Z,0.50
2018-12-13T08:15:51.139Z,0.53
2018-12-13T08:18:23.129Z,0.35
2018-12-13T08:20:54.822Z,0.46
2018-12-13T08:23:25.243Z,0.34
2018-12-13T08:25:55.575Z,0.49
2018-12-13T08:28:26.037Z,0.63
2018-12-13T08:30:57.900Z,0.60
2018-12-13T08:33:27.610Z,0.55
2018-12-13T08:35:58.118Z,0.57
2018-12-13T08:38:28.731Z,0.58
2018-12-13T08:40:59.236Z,0.66
2018-12-13T08:43:30.303Z,0.69
2018-12-13T08:46:00.759Z,0.62
2018-12-13T08:48:31.408Z,0.73
2018-12-13T08:51:02.240Z,0.82
2018-12-13T08:53:32.917Z,0.76
2018-12-13T08:56:08.744Z,0.77
2018-12-13T08:58:40.197Z,0.75
2018-12-13T09:01:11.334Z,0.69
2018-12-13T09:03:42.484Z,0.70
2018-12-13T09:06:12.546Z,0.63
2018-12-13T09:08:43.178Z,0.66
2018-12-13T09:11:14.254Z,0.81
2018-12-13T09:13:44.225Z,0.87
2018-12-13T09:16:16.385Z,0.88
2018-12-13T09:18:48.211Z,0.91
2018-12-13T09:21:20.304Z,0.93
2018-12-13T09:23:51.223Z,0.92
2018-12-13T09:26:21.595Z,0.89
2018-12-13T09:28:51.367Z,0.95
2018-12-13T09:31:22.586Z,0.84
2018-12-13T09:33:53.438Z,0.82
2018-12-13T09:36:23.496Z,0.94
2018-12-13T09:38:55.514Z,0.97
2018-12-13T09:41:27.456Z,0.94
2018-12-13T09:43:59.765Z,0.93
2018-12-13T09:46:31.549Z,0.90
2018-12-13T09:49:02.409Z,0.80
2018-12-13T09:51:32.617Z,0.86
2018-12-13T09:54:03.716Z,0.90
2018-12-13T09:56:34.385Z,1.00
2018-12-13T09:59:04.699Z,0.94
2018-12-13T10:01:35.559Z,0.82
2018-12-13T10:04:06.479Z,0.81
2018-12-13T10:06:36.674Z,0.87
2018-12-13T10:09:08.513Z,0.78
2018-12-13T10:11:38.478Z,0.76
2018-12-13T10:14:08.614Z,0.72
2018-12-13T10:16:39.815Z,0.84
2018-12-13T10:19:10.524Z,0.79
2018-12-13T10:21:42.587Z,0.87
2018-12-13T10:24:12.328Z,0.97
2018-12-13T10:26:42.946Z,1.02
2018-12-13T10:29:13.393Z,1.05
2018-12-13T10:31:43.666Z,0.99
2018-12-13T10:34:14.274Z,1.02
2018-12-13T10:36:44.432Z,1.05
2018-12-13T10:39:14.746Z,1.09
2018-12-13T10:41:44.423Z,0.96
2018-12-13T10:44:18.654Z,0.97
2018-12-13T10:46:49.655Z,1.01
2018-12-13T10:49:20.723Z,0.99
2018-12-13T10:51:50.773Z,0.93
2018-12-13T10:54:22.727Z,0.98
2018-12-13T10:56:52.623Z,0.96
2018-12-13T10:59:22.803Z,1.02
2018-12-13T11:01:59.379Z,1.06
2018-12-13T11:04:30.853Z,0.94
2018-12-13T11:07:00.974Z,0.89
2018-12-13T11:09:31.816Z,0.89
2018-12-13T11:12:03.060Z,0.96
2018-12-13T11:14:32.948Z,0.99
2018-12-13T11:17:03.752Z,1.05
2018-12-13T11:19:35.055Z,0.99
2018-12-13T11:22:05.925Z,1.01
2018-12-13T11:24:36.867Z,0.83
2018-12-13T11:27:17.730Z,0.77
2018-12-13T11:30:06.426Z,0.69
2018-12-13T11:32:35.881Z,0.67
2018-12-13T11:35:05.977Z,0.65
2018-12-13T11:37:39.715Z,0.60
2018-12-13T11:40:16.865Z,0.63
2018-12-13T11:42:47.437Z,0.61
2018-12-13T11:45:17.848Z,0.55
2018-12-13T11:47:48.192Z,0.62
2018-12-13T11:50:19.208Z,0.50
2018-12-13T11:52:49.692Z,0.53
2018-12-13T11:55:41.522Z,0.58
2018-12-13T11:58:15.523Z,0.61
2018-12-13T12:00:45.069Z,0.67
2018-12-13T12:03:17.350Z,0.64
2018-12-13T12:05:49.322Z,0.66
2018-12-13T12:08:21.197Z,0.57
2018-12-13T12:10:52.062Z,0.53
2018-12-13T12:13:22.308Z,0.51
2018-12-13T12:15:54.219Z,0.47
2018-12-13T12:18:26.027Z,0.47
2018-12-13T12:20:57.253Z,0.50
2018-12-13T12:23:28.323Z,0.60
2018-12-13T12:25:58.993Z,0.60
2018-12-13T12:28:29.431Z,0.44
2018-12-13T12:31:00.118Z,0.39
2018-12-13T12:33:31.603Z,0.38
2018-12-13T12:36:02.351Z,0.33
2018-12-13T12:38:33.428Z,0.36
2018-12-13T12:41:03.339Z,0.44
2018-12-13T12:43:34.320Z,0.38
2018-12-13T12:46:05.182Z,0.31
2018-12-13T12:48:41.023Z,0.24
2018-12-13T12:51:18.159Z,0.25
2018-12-13T12:53:48.331Z,0.28
2018-12-13T12:56:19.470Z,0.29
2018-12-13T12:58:49.392Z,0.26
2018-12-13T13:01:20.389Z,0.27
2018-12-13T13:03:51.460Z,0.31
2018-12-13T13:06:22.328Z,0.26
2018-12-13T13:08:52.993Z,0.29
2018-12-13T13:11:23.514Z,0.25
2018-12-13T13:13:54.398Z,0.24
2018-12-13T13:16:24.423Z,0.22
2018-12-13T13:18:55.608Z,0.18
2018-12-13T13:21:26.418Z,0.22
2018-12-13T13:23:57.351Z,0.28
2018-12-13T13:26:27.389Z,0.23
2018-12-13T13:28:58.455Z,0.21
2018-12-13T13:31:28.388Z,0.28
2018-12-13T13:34:00.411Z,0.36
2018-12-13T13:36:36.008Z,0.34
2018-12-13T13:39:08.461Z,0.22
2018-12-13T13:41:38.551Z,0.22
2018-12-13T13:44:10.150Z,0.23
2018-12-13T13:46:42.500Z,0.19
2018-12-13T13:49:13.880Z,0.21
2018-12-13T13:51:43.398Z,0.25
2018-12-13T13:54:14.652Z,0.16
2018-12-13T13:56:44.803Z,0.18
2018-12-13T13:59:15.729Z,0.16
2018-12-13T14:01:45.230Z,0.07
2018-12-13T14:04:17.612Z,0.05
2018-12-13T14:06:48.700Z,0.11
2018-12-13T14:09:18.589Z,0.09
2018-12-13T14:11:49.459Z,0.10
2018-12-13T14:14:20.445Z,0.06
2018-12-13T14:16:50.748Z,0.14
2018-12-13T14:19:22.711Z,0.11
2018-12-13T14:21:54.647Z,0.08
2018-12-13T14:24:26.635Z,0.08
2018-12-13T14:26:56.804Z,0.08
2018-12-13T14:29:28.703Z,0.06
2018-12-13T14:32:00.736Z,0.06
2018-12-13T14:34:30.283Z,0.08
2018-12-13T14:37:02.878Z,0.14
2018-12-13T14:39:34.477Z,0.09
2018-12-13T14:42:05.312Z,0.05
2018-12-13T14:44:35.674Z,-0.02
2018-12-13T14:47:06.900Z,-0.06
2018-12-13T14:49:36.785Z,-0.05
2018-12-13T14:52:09.510Z,-0.09
2018-12-13T14:54:45.255Z,-0.14
2018-12-13T14:57:17.750Z,-0.06
2018-12-13T14:59:47.960Z,-0.10
2018-12-13T15:02:18.904Z,-0.14
2018-12-13T15:04:49.466Z,-0.12
2018-12-13T15:07:20.061Z,-0.16
2018-12-13T15:09:51.263Z,-0.27
2018-12-13T15:12:22.202Z,-0.33
2018-12-13T15:14:51.800Z,-0.27
2018-12-13T15:17:23.126Z,-0.26
2018-12-13T15:19:54.141Z,-0.13
2018-12-13T15:22:23.924Z,-0.20
2018-12-13T15:24:55.432Z,-0.21
2018-12-13T15:27:26.020Z,-0.21
2018-12-13T15:29:56.892Z,-0.09
2018-12-13T15:32:28.071Z,-0.09
2018-12-13T15:34:59.070Z,-0.15
2018-12-13T15:37:29.051Z,-0.12
2018-12-13T15:40:00.126Z,-0.11
2018-12-13T15:42:30.629Z,-0.11
2018-12-13T15:45:02.991Z,-0.09
2018-12-13T15:47:32.920Z,-0.08
2018-12-13T15:50:03.212Z,-0.08
2018-12-13T15:52:34.100Z,-0.09
2018-12-13T15:55:04.228Z,-0.09
2018-12-13T15:57:35.115Z,0.00
2018-12-13T16:00:05.991Z,-0.12
2018-12-13T16:02:36.147Z,-0.01
2018-12-13T16:05:08.096Z,-0.07
2018-12-13T16:07:40.031Z,0.03
2018-12-13T16:10:10.137Z,-0.05
2018-12-13T16:12:39.670Z,-0.03
2018-12-13T16:15:12.086Z,-0.05
2018-12-13T16:17:43.395Z,-0.09
2018-12-13T16:20:14.264Z,-0.03
2018-12-13T16:22:44.264Z,-0.05
2018-12-13T16:25:15.271Z,-0.07
2018-12-13T16:27:44.843Z,-0.09
2018-12-13T16:30:22.301Z,-0.08
2018-12-13T16:32:52.655Z,-0.02
2018-12-13T16:35:23.128Z,-0.03
2018-12-13T16:37:53.993Z,0.09
2018-12-13T16:40:24.225Z,0.03
2018-12-13T16:42:55.707Z,0.00
2018-12-13T16:45:26.107Z,-0.02
2018-12-13T16:47:56.720Z,-0.04
2018-12-13T16:50:27.349Z,0.01
2018-12-13T16:52:57.343Z,0.08
2018-12-13T16:55:29.057Z,0.12
2018-12-13T16:57:59.566Z,0.11
2018-12-13T17:00:30.055Z,0.06
2018-12-13T17:03:00.449Z,0.02
2018-12-13T17:05:31.225Z,0.00
2018-12-13T17:08:01.407Z,0.03
2018-12-13T17:10:32.309Z,0.06
2018-12-13T17:13:02.424Z,0.03
2018-12-13T17:15:32.152Z,0.07
2018-12-13T17:18:03.515Z,0.04
2018-12-13T17:20:34.140Z,0.05
2018-12-13T17:23:04.950Z,0.01
2018-12-13T17:25:35.396Z,0.11
2018-12-13T17:28:05.727Z,0.16
2018-12-13T17:30:36.357Z,0.09
2018-12-13T17:33:07.326Z,0.04
2018-12-13T17:35:38.061Z,0.08
2018-12-13T17:38:08.434Z,0.23
2018-12-13T17:40:39.059Z,0.17
2018-12-13T17:43:09.579Z,0.05
2018-12-13T17:45:40.621Z,0.02
2018-12-13T17:48:10.634Z,0.02
2018-12-13T17:50:42.040Z,-0.04
2018-12-13T17:53:12.606Z,-0.03
2018-12-13T17:55:43.481Z,0.02
2018-12-13T17:58:13.775Z,-0.02
2018-12-13T18:00:44.727Z,0.02
2018-12-13T18:03:15.693Z,0.00
2018-12-13T18:05:45.328Z,0.01
2018-12-13T18:08:16.623Z,-0.04
2018-12-13T18:10:47.843Z,-0.01
2018-12-13T18:13:18.359Z,-0.01
2018-12-13T18:15:55.528Z,-0.01
2018-12-13T18:18:25.686Z,-0.07
2018-12-13T18:20:55.902Z,-0.03
2018-12-13T18:26:21.847Z,-0.08
2018-12-13T18:31:34.867Z,-0.10
2018-12-13T18:34:05.763Z,-0.08
2018-12-13T18:36:35.821Z,-0.12
2018-12-13T18:39:08.175Z,-0.13
2018-12-13T18:41:39.827Z,-0.16
2018-12-13T18:44:10.727Z,-0.14
2018-12-13T18:46:40.827Z,-0.07
2018-12-13T18:49:10.671Z,-0.12
2018-12-13T18:51:42.517Z,-0.02
2018-12-13T18:54:12.926Z,-0.08
2018-12-13T18:56:44.002Z,-0.02
2018-12-13T18:59:14.849Z,-0.08
2018-12-13T19:01:45.282Z,-0.12
2018-12-13T19:04:15.658Z,-0.17
2018-12-13T19:06:45.248Z,-0.13
2018-12-13T19:09:14.925Z,0.03
2018-12-13T19:11:45.108Z,-0.06
2018-12-13T19:14:17.039Z,-0.05
2018-12-13T19:16:49.435Z,-0.08
2018-12-13T19:19:21.127Z,-0.03
2018-12-13T19:21:51.613Z,-0.07
2018-12-13T19:24:21.992Z,-0.08
2018-12-13T19:26:52.243Z,-0.01
2018-12-13T19:29:23.262Z,0.05
2018-12-13T19:31:54.131Z,0.06
2018-12-13T19:34:24.468Z,0.11
2018-12-13T19:37:01.172Z,-0.03
2018-12-13T19:39:32.159Z,-0.11
2018-12-13T19:42:02.118Z,-0.15
2018-12-13T19:44:33.045Z,-0.19
2018-12-13T19:47:03.160Z,-0.16
2018-12-13T19:49:34.158Z,-0.03
2018-12-13T19:54:47.789Z,-0.08
2018-12-13T19:57:18.164Z,-0.12
2018-12-13T19:59:49.612Z,-0.06
2018-12-13T20:02:19.184Z,-0.14
2018-12-13T20:04:50.235Z,-0.17
2018-12-13T20:07:21.301Z,-0.12
2018-12-13T20:09:52.373Z,-0.10
2018-12-13T20:12:22.351Z,-0.15
2018-12-13T20:14:53.273Z,-0.16
2018-12-13T20:17:24.270Z,-0.07
2018-12-13T20:19:55.338Z,-0.14
2018-12-13T20:22:26.308Z,-0.08
2018-12-13T20:24:57.276Z,-0.02
2018-12-13T20:27:27.440Z,-0.12
2018-12-13T20:29:57.336Z,-0.15
2018-12-13T20:32:28.431Z,-0.23
2018-12-13T20:34:58.568Z,-0.26
2018-12-13T20:37:29.449Z,-0.23
2018-12-13T20:39:59.462Z,-0.21
2018-12-13T20:42:30.109Z,-0.15
2018-12-13T20:45:00.417Z,-0.12
2018-12-13T20:47:31.360Z,-0.20
2018-12-13T20:50:05.049Z,-0.23
2018-12-13T20:52:37.537Z,-0.10
2018-12-13T20:55:08.445Z,-0.19
2018-12-13T20:57:38.465Z,-0.21
2018-12-13T21:00:10.791Z,-0.24
2018-12-13T21:02:42.469Z,-0.26
2018-12-13T21:05:14.384Z,-0.22
2018-12-13T21:07:52.916Z,-0.17
2018-12-13T21:10:23.536Z,-0.20
2018-12-13T21:12:54.549Z,-0.11
2018-12-13T21:15:27.440Z,-0.08
2018-12-13T21:17:58.881Z,-0.07
2018-12-13T21:20:32.291Z,-0.15
2018-12-13T21:23:03.448Z,-0.19
2018-12-13T21:25:33.600Z,-0.17
2018-12-13T21:28:04.440Z,-0.20
2018-12-13T21:30:35.656Z,-0.15
2018-12-13T21:33:07.548Z,-0.15
2018-12-13T21:35:39.518Z,-0.13
2018-12-13T21:38:09.672Z,-0.19
2018-12-13T21:40:41.693Z,-0.16
2018-12-13T21:43:13.582Z,-0.18
2018-12-13T21:45:43.633Z,-0.19
2018-12-13T21:48:13.335Z,-0.16
2018-12-13T21:50:45.170Z,-0.09
2018-12-13T21:53:15.549Z,-0.18
2018-12-13T21:55:45.540Z,-0.16
2018-12-13T21:58:15.234Z,-0.09
2018-12-13T22:00:45.388Z,-0.11
2018-12-13T22:03:15.777Z,-0.12
2018-12-13T22:05:45.362Z,-0.14
2018-12-13T22:08:17.595Z,-0.14
2018-12-13T22:10:47.714Z,-0.10
2018-12-13T22:13:18.902Z,-0.19
2018-12-13T22:15:48.609Z,-0.18
2018-12-13T22:18:19.597Z,-0.21
2018-12-13T22:20:53.244Z,-0.26
2018-12-13T22:23:23.749Z,-0.32
2018-12-13T22:25:55.030Z,-0.27
2018-12-13T22:28:24.719Z,-0.29
2018-12-13T22:30:54.856Z,-0.34
2018-12-13T22:33:27.024Z,-0.34
2018-12-13T22:35:57.597Z,-0.38
2018-12-13T22:38:28.054Z,-0.34
2018-12-13T22:40:58.265Z,-0.34
2018-12-13T22:43:32.821Z,-0.36
2018-12-13T22:46:04.160Z,-0.35
2018-12-13T22:48:35.817Z,-0.36
2018-12-13T22:51:06.888Z,-0.36
2018-12-13T22:53:36.934Z,-0.36
2018-12-13T22:56:07.979Z,-0.33
2018-12-13T22:58:37.926Z,-0.39
2018-12-13T23:01:08.967Z,-0.43
2018-12-13T23:03:42.960Z,-0.37
2018-12-13T23:06:13.080Z,-0.42
2018-12-13T23:08:43.599Z,-0.46
2018-12-13T23:11:14.429Z,-0.44
2018-12-13T23:13:44.915Z,-0.29
2018-12-13T23:16:16.966Z,-0.34
2018-12-13T23:18:49.055Z,-0.31
2018-12-13T23:21:21.962Z,-0.28
2018-12-13T23:23:53.231Z,-0.30
2018-12-13T23:26:23.157Z,-0.28
2018-12-13T23:28:55.024Z,-0.27
2018-12-13T23:31:25.439Z,-0.32
2018-12-13T23:33:55.053Z,-0.28
2018-12-13T23:36:26.100Z,-0.17
2018-12-13T23:38:58.183Z,-0.21
2018-12-13T23:41:28.107Z,-0.29
2018-12-13T23:43:58.024Z,-0.36
2018-12-13T23:46:29.344Z,-0.43
2018-12-13T23:49:00.254Z,-0.35
2018-12-13T23:51:30.115Z,-0.41
2018-12-13T23:54:07.937Z,-0.30
2018-12-13T23:56:40.668Z,-0.37
2018-12-13T23:59:11.261Z,-0.39
